Time;durP1;ratioP1;P1;durP2;ratioP2;P2;SDS_P1;SDS_P2;PMS_P1;PMS_P2;Temp;Humidity;BMP_temperature;BMP_pressure;BME280_temperature;BME280_humidity;BME280_pressure;Samples;Min_cycle;Max_cycle;Signal;HPM_P1;HPM_P2
2023/04/06 00:02:12;;;;;;;5.38;4.88;;;13.20;65.30;;;;;;5017184;28;20535;-79
2023/04/06 00:04:38;;;;;;;5.95;5.45;;;13.20;65.30;;;;;;5016602;28;20045;-78
2023/04/06 00:07:04;;;;;;;5.30;4.80;;;13.20;65.30;;;;;;5024349;28;20112;-79
2023/04/06 00:09:30;;;;;;;5.20;4.68;;;13.20;65.40;;;;;;5023273;28;20065;-78
2023/04/06 00:11:57;;;;;;;5.60;5.10;;;13.20;65.40;;;;;;5015897;28;20597;-78
2023/04/06 00:14:23;;;;;;;5.10;4.70;;;13.10;65.20;;;;;;5008508;28;20045;-78
2023/04/06 00:16:49;;;;;;;4.95;4.47;;;13.20;65.50;;;;;;5017611;28;20033;-78
2023/04/06 00:19:15;;;;;;;5.40;4.90;;;13.20;65.50;;;;;;5023465;28;20358;-78
2023/04/06 00:21:41;;;;;;;4.72;4.32;;;13.20;65.50;;;;;;5016444;28;20117;-78
2023/04/06 00:24:07;;;;;;;4.32;3.83;;;13.10;65.30;;;;;;5022506;28;20025;-78
2023/04/06 00:26:33;;;;;;;5.22;4.03;;;13.10;65.40;;;;;;5023166;28;20124;-78
2023/04/06 00:28:59;;;;;;;5.15;4.55;;;13.10;65.40;;;;;;5017887;28;20091;-79
2023/04/06 00:31:25;;;;;;;4.30;3.97;;;13.20;65.60;;;;;;5013989;28;20034;-78
2023/04/06 00:33:52;;;;;;;5.65;4.78;;;13.20;65.60;;;;;;5020258;28;20029;-80
2023/04/06 00:36:18;;;;;;;5.40;4.95;;;13.10;65.40;;;;;;5013558;28;20281;-78
2023/04/06 00:38:44;;;;;;;4.38;4.07;;;13.20;65.60;;;;;;5019242;28;20612;-78
2023/04/06 00:41:10;;;;;;;4.65;4.20;;;13.10;65.50;;;;;;4999445;28;20380;-79
2023/04/06 00:43:36;;;;;;;5.28;4.78;;;13.10;65.50;;;;;;5022264;28;20279;-78
2023/04/06 00:46:02;;;;;;;4.57;4.18;;;13.10;65.50;;;;;;5006857;28;20041;-78
2023/04/06 00:48:30;;;;;;;4.60;4.20;;;13.10;65.60;;;;;;5013330;28;20061;-78
2023/04/06 00:50:55;;;;;;;5.13;4.72;;;13.10;65.60;;;;;;5017483;28;20069;-78
2023/04/06 00:53:21;;;;;;;4.30;4.00;;;13.10;65.70;;;;;;5000064;28;20579;-77
2023/04/06 00:55:48;;;;;;;3.95;3.65;;;13.10;65.70;;;;;;5018230;28;20056;-78
2023/04/06 00:58:14;;;;;;;4.30;4.00;;;13.10;65.70;;;;;;5002323;28;20033;-77
2023/04/06 01:00:47;;;;;;;4.35;3.95;;;13.00;65.60;;;;;;4995032;28;20387;-77
2023/04/06 01:03:17;;;;;;;4.60;4.20;;;13.10;65.80;;;;;;4993427;28;20410;-77
2023/04/06 01:05:43;;;;;;;4.40;4.10;;;13.00;65.60;;;;;;5015948;28;20046;-77
2023/04/06 01:08:24;;;;;;;5.45;4.95;;;13.00;65.70;;;;;;4985875;28;20327;-78
2023/04/06 01:10:55;;;;;;;4.95;4.55;;;13.00;65.70;;;;;;4998692;28;20029;-78
2023/04/06 01:13:25;;;;;;;3.72;3.42;;;13.00;65.80;;;;;;4983337;28;20208;-78
2023/04/06 01:15:57;;;;;;;4.30;4.00;;;13.00;65.80;;;;;;5003008;28;20171;-78
2023/04/06 01:18:32;;;;;;;4.43;4.10;;;13.00;65.80;;;;;;4988741;28;20490;-78
2023/04/06 01:21:15;;;;;;;4.78;4.38;;;13.00;65.80;;;;;;5016061;28;20037;-78
2023/04/06 01:23:48;;;;;;;4.28;3.97;;;13.00;65.80;;;;;;5001779;28;20082;-79
2023/04/06 01:26:21;;;;;;;4.82;4.43;;;13.00;65.90;;;;;;4987892;28;20489;-78
2023/04/06 01:28:49;;;;;;;5.30;4.80;;;13.00;65.90;;;;;;5008667;28;20086;-78
2023/04/06 01:31:41;;;;;;;4.53;4.23;;;13.00;65.90;;;;;;5017090;28;20231;-78
2023/04/06 01:34:07;;;;;;;4.70;4.30;;;13.00;65.90;;;;;;4987730;28;20282;-78
2023/04/06 01:36:33;;;;;;;4.70;4.30;;;13.00;65.90;;;;;;5004810;28;20167;-77
2023/04/06 01:39:20;;;;;;;5.22;4.72;;;13.00;66.00;;;;;;4996047;28;20061;-77
2023/04/06 01:41:49;;;;;;;5.68;4.97;;;13.00;65.90;;;;;;5002417;28;20037;-76
2023/04/06 01:44:18;;;;;;;5.57;4.63;;;13.00;66.00;;;;;;4996240;28;20049;-77
2023/04/06 01:46:48;;;;;;;4.43;4.10;;;13.00;66.00;;;;;;4998222;28;20094;-77
2023/04/06 01:49:18;;;;;;;4.38;3.97;;;13.00;66.00;;;;;;5011605;28;20392;-77
2023/04/06 01:51:48;;;;;;;3.85;3.58;;;13.00;66.10;;;;;;5019308;28;20532;-78
2023/04/06 01:54:15;;;;;;;4.43;4.03;;;13.00;66.10;;;;;;5007892;28;20095;-79
2023/04/06 01:56:59;;;;;;;4.25;3.85;;;13.00;66.10;;;;;;5026871;28;20084;-78
2023/04/06 01:59:32;;;;;;;4.60;4.20;;;13.00;66.20;;;;;;5021453;28;20026;-79
2023/04/06 02:02:02;;;;;;;3.80;3.50;;;13.00;66.20;;;;;;5018843;28;20120;-78
2023/04/06 02:04:29;;;;;;;4.20;3.70;;;13.00;66.20;;;;;;5013431;28;20061;-78
2023/04/06 02:07:09;;;;;;;3.58;3.28;;;13.00;66.30;;;;;;5023141;28;20030;-77
2023/04/06 02:09:36;;;;;;;4.43;3.53;;;13.00;66.40;;;;;;5013498;28;20030;-78
2023/04/06 02:12:05;;;;;;;3.47;2.90;;;13.00;66.40;;;;;;5020488;28;20106;-78
2023/04/06 02:14:33;;;;;;;3.67;2.60;;;12.90;66.20;;;;;;5028322;28;20042;-78
2023/04/06 02:17:00;;;;;;;3.63;3.03;;;13.00;66.50;;;;;;5042244;28;20017;-79
2023/04/06 02:19:26;;;;;;;4.60;2.78;;;12.90;66.30;;;;;;5022553;28;20030;-79
2023/04/06 02:21:53;;;;;;;3.55;2.42;;;13.00;66.50;;;;;;5040091;28;20069;-79
2023/04/06 02:24:19;;;;;;;3.17;2.95;;;13.00;66.60;;;;;;5046741;28;20044;-78
2023/04/06 02:26:45;;;;;;;2.25;1.92;;;12.90;66.40;;;;;;5054804;28;20041;-79
2023/04/06 02:29:11;;;;;;;2.58;2.00;;;12.90;66.40;;;;;;5046838;28;20048;-79
2023/04/06 02:31:37;;;;;;;4.57;2.00;;;12.90;66.40;;;;;;5049865;28;20156;-78
2023/04/06 02:34:05;;;;;;;5.15;2.03;;;12.90;66.40;;;;;;5038481;28;20084;-80
2023/04/06 02:36:32;;;;;;;2.25;1.48;;;12.90;66.50;;;;;;5037708;28;20042;-79
2023/04/06 02:38:58;;;;;;;3.17;1.67;;;12.90;66.50;;;;;;5034986;28;20037;-78
2023/04/06 02:41:26;;;;;;;2.15;1.55;;;12.90;66.50;;;;;;5023136;28;20068;-78
2023/04/06 02:43:52;;;;;;;2.25;1.83;;;12.90;66.50;;;;;;5021375;28;20891;-77
2023/04/06 02:46:32;;;;;;;3.15;1.90;;;12.90;66.60;;;;;;5040470;28;20108;-78
2023/04/06 02:49:00;;;;;;;4.28;2.25;;;12.90;66.60;;;;;;5008106;28;20093;-79
2023/04/06 02:51:27;;;;;;;4.03;1.40;;;12.80;66.40;;;;;;5009665;28;20214;-79
2023/04/06 02:54:02;;;;;;;2.30;1.40;;;12.80;66.40;;;;;;5010998;28;20029;-80
2023/04/06 02:56:28;;;;;;;2.92;1.10;;;12.80;66.50;;;;;;5010809;28;20036;-81
2023/04/06 02:58:54;;;;;;;4.53;1.77;;;12.80;66.50;;;;;;5008325;28;20030;-81
2023/04/06 03:01:24;;;;;;;1.58;1.20;;;12.80;66.60;;;;;;5027619;28;20061;-81
2023/04/06 03:03:56;;;;;;;2.15;1.33;;;12.70;66.50;;;;;;5008362;28;20036;-81
2023/04/06 03:06:26;;;;;;;2.35;1.02;;;12.80;66.70;;;;;;5002502;28;20077;-81
2023/04/06 03:08:56;;;;;;;2.55;1.10;;;12.70;66.60;;;;;;5011274;28;20117;-80
2023/04/06 03:11:22;;;;;;;3.50;1.50;;;12.70;66.60;;;;;;5014216;28;20096;-80
2023/04/06 03:13:50;;;;;;;1.75;1.42;;;12.60;66.50;;;;;;5002735;28;20653;-80
2023/04/06 03:16:16;;;;;;;2.53;1.00;;;12.60;66.50;;;;;;4999396;28;20026;-80
2023/04/06 03:18:44;;;;;;;2.67;1.02;;;12.60;66.60;;;;;;5008575;28;20049;-80
2023/04/06 03:21:12;;;;;;;2.85;1.60;;;12.60;66.60;;;;;;4991206;28;20087;-80
2023/04/06 03:24:05;;;;;;;3.40;1.20;;;12.60;66.60;;;;;;5018584;28;20042;-80
2023/04/06 03:26:31;;;;;;;1.92;1.05;;;12.60;66.60;;;;;;5012627;28;20049;-80
2023/04/06 03:29:02;;;;;;;3.35;1.23;;;12.50;66.50;;;;;;5006592;28;20556;-79
2023/04/06 03:31:30;;;;;;;2.67;1.20;;;12.50;66.50;;;;;;4993612;28;20054;-79
2023/04/06 03:34:05;;;;;;;4.45;1.20;;;12.50;66.50;;;;;;5007157;28;20032;-77
2023/04/06 03:36:35;;;;;;;2.60;1.08;;;12.50;66.60;;;;;;5010841;28;20413;-77
2023/04/06 03:39:02;;;;;;;4.05;1.25;;;12.50;66.60;;;;;;5010062;28;20120;-78
2023/04/06 03:41:31;;;;;;;2.97;1.17;;;12.50;66.60;;;;;;5005751;28;20511;-79
2023/04/06 03:44:05;;;;;;;2.67;1.55;;;12.50;66.60;;;;;;4991613;28;20735;-80
2023/04/06 03:46:31;;;;;;;4.40;1.58;;;12.50;66.60;;;;;;4999740;28;20053;-80
2023/04/06 03:48:58;;;;;;;5.80;1.40;;;12.50;66.60;;;;;;4997471;28;20626;-80
2023/04/06 03:51:25;;;;;;;3.47;1.33;;;12.50;66.60;;;;;;5010120;28;20045;-80
2023/04/06 03:53:51;;;;;;;6.53;1.48;;;12.40;66.50;;;;;;5008380;28;20021;-80
2023/04/06 03:56:17;;;;;;;5.18;1.80;;;12.40;66.50;;;;;;5026599;28;20026;-79
2023/04/06 03:58:45;;;;;;;7.15;1.92;;;12.40;67.10;;;;;;5009183;28;20132;-78
2023/04/06 04:01:11;;;;;;;9.90;1.60;;;12.40;66.60;;;;;;5025036;28;20037;-78
2023/04/06 04:03:36;;;;;;;9.13;1.95;;;12.40;66.60;;;;;;5027202;28;20508;-78
2023/04/06 04:06:02;;;;;;;6.00;1.55;;;12.40;66.60;;;;;;5009564;28;20171;-78
2023/04/06 04:08:28;;;;;;;7.13;1.77;;;12.40;66.60;;;;;;5018640;28;20105;-78
2023/04/06 04:10:54;;;;;;;8.77;1.95;;;12.50;66.80;;;;;;5004703;28;20072;-79
2023/04/06 04:13:22;;;;;;;11.38;2.75;;;12.50;66.80;;;;;;4990124;28;20142;-78
2023/04/06 04:15:50;;;;;;;7.47;1.80;;;12.50;66.80;;;;;;4986654;28;20481;-78
2023/04/06 04:18:16;;;;;;;7.40;2.38;;;12.40;66.70;;;;;;4989444;28;20029;-79
2023/04/06 04:20:42;;;;;;;6.53;1.95;;;12.50;66.90;;;;;;4986900;28;20548;-79
2023/04/06 04:23:10;;;;;;;10.98;3.28;;;12.40;66.70;;;;;;5002533;28;20492;-79
2023/04/06 04:25:36;;;;;;;10.43;4.15;;;12.40;66.70;;;;;;5014766;28;20048;-78
2023/04/06 04:28:02;;;;;;;11.35;2.67;;;12.40;66.70;;;;;;5001091;28;20103;-79
2023/04/06 04:30:29;;;;;;;10.60;2.78;;;12.40;66.70;;;;;;5008949;28;20092;-81
2023/04/06 04:32:55;;;;;;;10.27;2.35;;;12.40;66.80;;;;;;4982243;28;20034;-80
2023/04/06 04:35:22;;;;;;;8.85;2.63;;;12.40;66.80;;;;;;5004375;28;20441;-78
2023/04/06 04:37:49;;;;;;;10.52;2.83;;;12.40;66.80;;;;;;5027288;28;20029;-78
2023/04/06 04:40:16;;;;;;;10.13;2.38;;;12.40;66.80;;;;;;4992696;28;20041;-78
2023/04/06 04:43:02;;;;;;;11.23;2.33;;;12.40;66.80;;;;;;5008569;28;20033;-80
2023/04/06 04:45:32;;;;;;;9.23;2.78;;;12.40;66.80;;;;;;5008203;28;20042;-76
2023/04/06 04:48:05;;;;;;;13.55;2.78;;;12.40;66.80;;;;;;5006410;28;20061;-76
2023/04/06 04:50:42;;;;;;;10.43;3.40;;;12.40;66.80;;;;;;5013562;28;20034;-75
2023/04/06 04:53:08;;;;;;;9.38;2.40;;;12.40;66.90;;;;;;5035686;28;20033;-76
2023/04/06 04:55:35;;;;;;;15.90;2.33;;;12.40;66.90;;;;;;5017996;28;20034;-78
2023/04/06 04:58:02;;;;;;;13.20;2.38;;;12.40;66.90;;;;;;4997642;28;20038;-76
2023/04/06 05:00:46;;;;;;;12.60;3.25;;;12.40;66.90;;;;;;5011472;28;20053;-78
2023/04/06 05:03:26;;;;;;;10.13;3.10;;;12.40;66.90;;;;;;5011273;28;20033;-77
2023/04/06 05:06:00;;;;;;;16.77;3.92;;;12.40;66.90;;;;;;5017866;28;20146;-77
2023/04/06 05:08:29;;;;;;;12.55;3.05;;;12.40;66.90;;;;;;5011794;28;20088;-77
2023/04/06 05:10:57;;;;;;;15.48;2.72;;;12.40;66.90;;;;;;5013302;28;20033;-76
2023/04/06 05:13:23;;;;;;;13.05;2.75;;;12.40;67.00;;;;;;5018598;28;20561;-77
2023/04/06 05:15:51;;;;;;;11.95;3.22;;;12.40;67.00;;;;;;5022437;28;20636;-77
2023/04/06 05:18:27;;;;;;;11.43;3.00;;;12.40;67.00;;;;;;5017716;28;20030;-76
2023/04/06 05:20:55;;;;;;;10.38;3.67;;;12.40;67.10;;;;;;5019297;28;20049;-77
2023/04/06 05:23:27;;;;;;;13.90;3.10;;;12.30;66.90;;;;;;4999390;28;20498;-76
2023/04/06 05:25:56;;;;;;;12.15;3.30;;;12.30;67.00;;;;;;5023578;28;20045;-76
2023/04/06 05:28:23;;;;;;;14.00;3.50;;;12.40;67.10;;;;;;5000454;28;20033;-76
2023/04/06 05:30:49;;;;;;;11.18;3.50;;;12.30;67.00;;;;;;5015100;28;20037;-76
2023/04/06 05:33:16;;;;;;;11.15;3.70;;;12.30;67.10;;;;;;4998832;28;20436;-77
2023/04/06 05:36:03;;;;;;;14.40;4.85;;;12.30;67.10;;;;;;5013394;28;20550;-75
2023/04/06 05:38:29;;;;;;;16.25;5.05;;;12.30;67.10;;;;;;5014765;28;20200;-77
2023/04/06 05:41:00;;;;;;;13.02;4.38;;;12.30;67.20;;;;;;5016442;28;20515;-77
2023/04/06 05:43:30;;;;;;;10.35;5.15;;;12.30;67.20;;;;;;5017922;28;20029;-76
2023/04/06 05:45:58;;;;;;;20.83;5.47;;;12.30;67.20;;;;;;5012731;28;20525;-75
2023/04/06 05:48:25;;;;;;;11.68;3.90;;;12.30;67.30;;;;;;5013045;28;20054;-75
2023/04/06 05:50:52;;;;;;;11.85;4.88;;;12.30;67.20;;;;;;5012440;28;20033;-77
2023/04/06 05:53:22;;;;;;;13.05;4.63;;;12.30;67.20;;;;;;5017463;28;20290;-75
2023/04/06 05:55:53;;;;;;;11.82;4.90;;;12.30;67.20;;;;;;5020855;28;20041;-75
2023/04/06 05:58:20;;;;;;;11.18;4.68;;;12.40;67.40;;;;;;5018904;28;20575;-75
2023/04/06 06:00:49;;;;;;;13.55;5.97;;;12.40;67.40;;;;;;5003415;28;20071;-76
2023/04/06 06:03:17;;;;;;;13.48;6.10;;;12.40;67.40;;;;;;4988857;28;20097;-75
2023/04/06 06:05:49;;;;;;;13.57;7.07;;;12.40;67.30;;;;;;5008858;28;20050;-77
2023/04/06 06:08:21;;;;;;;17.30;6.65;;;12.40;67.30;;;;;;5009330;28;20477;-76
2023/04/06 06:10:49;;;;;;;14.90;7.82;;;12.40;67.30;;;;;;5006182;28;20140;-77
2023/04/06 06:13:18;;;;;;;15.88;7.65;;;12.50;67.50;;;;;;5009280;28;20461;-78
2023/04/06 06:15:45;;;;;;;10.18;6.53;;;12.50;67.40;;;;;;5018435;28;20057;-75
2023/04/06 06:18:13;;;;;;;14.05;7.35;;;12.50;67.40;;;;;;5008810;28;20029;-77
2023/04/06 06:20:39;;;;;;;15.95;6.63;;;12.60;67.70;;;;;;5007045;28;20337;-74
2023/04/06 06:23:06;;;;;;;18.60;9.60;;;12.60;68.30;;;;;;5009560;28;20057;-76
2023/04/06 06:25:32;;;;;;;23.98;9.30;;;12.70;68.10;;;;;;5009656;28;20068;-74
2023/04/06 06:27:59;;;;;;;14.60;7.25;;;12.90;68.50;;;;;;4997183;28;20033;-75
2023/04/06 06:30:27;;;;;;;21.02;8.40;;;12.90;68.50;;;;;;5009823;28;20657;-76
2023/04/06 06:32:53;;;;;;;15.95;7.82;;;13.00;68.70;;;;;;5013044;28;20126;-75
2023/04/06 06:35:22;;;;;;;16.58;7.82;;;13.10;68.90;;;;;;4997467;28;20117;-78
2023/04/06 06:37:48;;;;;;;17.63;8.23;;;13.20;69.00;;;;;;5012431;28;20310;-75
2023/04/06 06:40:19;;;;;;;16.27;7.43;;;13.30;69.10;;;;;;5009709;28;20026;-77
2023/04/06 06:42:47;;;;;;;15.48;7.53;;;13.50;69.40;;;;;;5014615;28;20033;-78
2023/04/06 06:45:25;;;;;;;17.00;7.57;;;13.50;69.30;;;;;;5011662;28;20053;-77
2023/04/06 06:47:51;;;;;;;12.50;7.32;;;13.70;69.40;;;;;;5004909;28;20057;-76
2023/04/06 06:50:17;;;;;;;13.73;7.40;;;13.80;69.40;;;;;;5013986;28;20030;-76
2023/04/06 06:52:44;;;;;;;13.80;8.10;;;13.90;69.40;;;;;;5013602;28;20877;-78
2023/04/06 06:55:11;;;;;;;14.38;6.40;;;14.00;69.40;;;;;;5015543;28;20029;-78
2023/04/06 06:57:38;;;;;;;14.52;8.65;;;14.00;69.30;;;;;;5013890;28;20246;-76
2023/04/06 07:00:07;;;;;;;11.45;5.95;;;14.00;69.20;;;;;;5013912;28;20338;-79
2023/04/06 07:02:35;;;;;;;10.75;5.55;;;14.10;69.30;;;;;;5029702;28;20026;-77
2023/04/06 07:05:02;;;;;;;9.57;5.80;;;14.00;69.10;;;;;;5009975;28;20057;-77
2023/04/06 07:07:31;;;;;;;10.48;5.00;;;14.00;69.00;;;;;;5017927;28;20251;-78
2023/04/06 07:09:58;;;;;;;10.55;5.07;;;14.00;69.00;;;;;;5014648;28;20382;-77
2023/04/06 07:12:24;;;;;;;8.82;5.32;;;14.00;68.90;;;;;;5014434;28;20124;-77
2023/04/06 07:14:51;;;;;;;9.52;4.45;;;14.00;68.80;;;;;;5015964;28;20033;-77
2023/04/06 07:17:17;;;;;;;9.60;4.38;;;14.00;68.70;;;;;;5023720;28;20044;-77
2023/04/06 07:19:43;;;;;;;11.45;4.53;;;14.10;68.70;;;;;;5016745;28;20036;-77
2023/04/06 07:22:09;;;;;;;11.00;4.22;;;14.10;68.60;;;;;;5028858;28;20033;-75
2023/04/06 07:24:35;;;;;;;11.73;4.22;;;14.10;68.40;;;;;;5011998;28;20056;-76
2023/04/06 07:27:01;;;;;;;10.73;5.32;;;14.10;68.30;;;;;;5013570;28;20022;-77
2023/04/06 07:29:28;;;;;;;7.97;4.47;;;14.00;68.10;;;;;;5012431;28;20493;-76
2023/04/06 07:31:54;;;;;;;6.82;3.75;;;14.00;68.10;;;;;;5017555;28;20033;-77
2023/04/06 07:34:22;;;;;;;8.05;3.80;;;14.00;68.10;;;;;;4998200;28;20508;-77
2023/04/06 07:36:53;;;;;;;8.63;4.05;;;14.00;68.00;;;;;;5010590;28;20036;-75
2023/04/06 07:39:20;;;;;;;8.43;3.40;;;13.90;67.80;;;;;;5014637;28;20232;-76
2023/04/06 07:41:47;;;;;;;12.82;3.50;;;14.00;67.90;;;;;;5017572;28;20055;-77
2023/04/06 07:44:13;;;;;;;8.07;3.40;;;14.00;67.90;;;;;;5019431;28;20044;-75
2023/04/06 07:46:39;;;;;;;8.52;3.55;;;14.10;68.00;;;;;;5015709;28;20460;-75
2023/04/06 07:49:05;;;;;;;10.98;3.85;;;14.10;67.80;;;;;;4997495;28;20044;-76
2023/04/06 07:51:36;;;;;;;7.80;3.33;;;14.20;67.90;;;;;;5021119;28;20025;-77
2023/04/06 07:54:02;;;;;;;8.50;3.60;;;14.30;68.00;;;;;;5027297;28;20029;-78
2023/04/06 07:56:28;;;;;;;7.82;4.22;;;14.40;68.00;;;;;;5040910;28;20060;-77
2023/04/06 07:58:56;;;;;;;10.02;4.30;;;14.60;68.00;;;;;;5041597;28;20045;-77
2023/04/06 08:01:22;;;;;;;7.72;3.83;;;14.70;67.70;;;;;;5019406;28;20737;-76
2023/04/06 08:03:49;;;;;;;9.85;4.70;;;14.80;67.40;;;;;;5039015;28;20043;-77
2023/04/06 08:06:15;;;;;;;10.57;4.70;;;14.90;67.30;;;;;;5041813;28;20085;-77
2023/04/06 08:08:41;;;;;;;7.97;5.55;;;15.00;67.30;;;;;;5033583;28;20036;-76
2023/04/06 08:11:08;;;;;;;8.68;4.65;;;15.00;67.00;;;;;;5017242;28;20135;-77
2023/04/06 08:13:36;;;;;;;11.52;5.60;;;15.10;67.00;;;;;;5008732;28;20112;-78
2023/04/06 08:16:02;;;;;;;7.13;4.78;;;15.10;66.90;;;;;;4998918;28;20063;-77
2023/04/06 08:18:29;;;;;;;11.10;5.78;;;15.20;66.90;;;;;;5018620;28;20026;-76
2023/04/06 08:20:56;;;;;;;12.05;4.95;;;15.20;66.70;;;;;;5016616;28;20402;-75
2023/04/06 08:23:22;;;;;;;8.88;5.00;;;15.20;66.60;;;;;;5015248;28;20025;-78
2023/04/06 08:25:48;;;;;;;8.00;4.60;;;15.30;66.80;;;;;;4985248;28;20045;-77
2023/04/06 08:28:14;;;;;;;9.27;4.75;;;15.40;66.70;;;;;;5000434;28;20396;-78
2023/04/06 08:30:41;;;;;;;7.07;4.63;;;15.50;66.60;;;;;;5017931;28;20044;-78
2023/04/06 08:33:10;;;;;;;9.48;4.55;;;15.60;66.40;;;;;;5004635;28;20273;-76
2023/04/06 08:35:36;;;;;;;9.48;5.07;;;15.80;66.90;;;;;;5015963;28;20123;-76
2023/04/06 08:38:02;;;;;;;8.00;4.07;;;16.00;66.30;;;;;;5016041;28;20116;-75
2023/04/06 08:40:28;;;;;;;6.72;4.18;;;16.10;66.10;;;;;;5018557;28;20030;-75
2023/04/06 08:43:01;;;;;;;7.30;4.03;;;16.30;66.60;;;;;;5017567;28;20045;-76
2023/04/06 08:45:27;;;;;;;8.43;5.18;;;16.40;65.70;;;;;;5017038;28;20041;-75
2023/04/06 08:47:56;;;;;;;8.85;4.70;;;16.60;65.60;;;;;;5016797;28;20064;-75
2023/04/06 08:50:23;;;;;;;6.05;4.13;;;16.70;65.60;;;;;;5013410;28;20108;-75
2023/04/06 08:52:49;;;;;;;8.55;3.85;;;16.70;65.40;;;;;;4993783;28;20034;-75
2023/04/06 08:55:16;;;;;;;6.60;3.78;;;16.70;65.30;;;;;;5016667;28;20034;-75
2023/04/06 08:57:43;;;;;;;7.18;3.50;;;16.70;65.40;;;;;;5018045;28;20025;-75
2023/04/06 09:00:11;;;;;;;7.65;4.45;;;16.70;65.50;;;;;;5017424;28;20191;-75
2023/04/06 09:02:41;;;;;;;6.95;3.35;;;16.70;66.10;;;;;;5014394;28;20033;-75
2023/04/06 09:05:09;;;;;;;9.02;4.07;;;16.70;65.60;;;;;;5016309;28;20037;-75
2023/04/06 09:07:36;;;;;;;6.38;3.17;;;16.60;65.50;;;;;;5014144;28;20175;-75
2023/04/06 09:10:04;;;;;;;7.88;4.22;;;16.60;65.60;;;;;;5014608;28;20659;-75
2023/04/06 09:12:31;;;;;;;9.00;3.90;;;16.60;65.60;;;;;;4997271;28;20033;-75
2023/04/06 09:14:58;;;;;;;7.80;3.40;;;16.60;65.50;;;;;;5016245;28;20120;-75
2023/04/06 09:17:32;;;;;;;7.40;4.05;;;16.60;65.50;;;;;;5004202;28;20033;-73
2023/04/06 09:19:59;;;;;;;6.93;3.13;;;16.60;65.50;;;;;;4998634;28;20394;-74
2023/04/06 09:22:26;;;;;;;8.40;3.63;;;16.60;65.50;;;;;;5016423;28;20022;-75
2023/04/06 09:24:53;;;;;;;4.78;3.53;;;16.60;65.50;;;;;;4993131;28;20046;-75
2023/04/06 09:27:37;;;;;;;8.52;4.90;;;16.80;65.80;;;;;;5014537;28;20140;-74
2023/04/06 09:30:05;;;;;;;8.80;3.25;;;16.90;65.60;;;;;;5015799;28;20041;-75
2023/04/06 09:32:31;;;;;;;9.32;3.92;;;17.10;65.50;;;;;;5013796;28;22362;-75
2023/04/06 09:35:10;;;;;;;13.18;4.53;;;17.20;65.30;;;;;;5016844;28;20025;-77
2023/04/06 09:37:36;;;;;;;8.10;4.00;;;17.40;65.10;;;;;;4997967;28;20025;-75
2023/04/06 09:40:05;;;;;;;7.60;3.10;;;17.60;65.00;;;;;;5015009;28;20022;-75
2023/04/06 09:42:31;;;;;;;7.40;2.83;;;17.80;64.90;;;;;;5015743;28;20733;-76
2023/04/06 09:44:57;;;;;;;6.03;2.38;;;17.90;64.60;;;;;;5014956;28;20097;-76
2023/04/06 09:47:26;;;;;;;5.35;2.80;;;18.00;64.40;;;;;;5004050;28;20091;-76
2023/04/06 09:49:57;;;;;;;6.53;3.25;;;18.10;64.10;;;;;;5010547;28;20025;-76
2023/04/06 09:52:27;;;;;;;5.78;3.20;;;18.20;63.70;;;;;;5009339;28;20029;-75
2023/04/06 09:54:58;;;;;;;5.00;2.55;;;18.40;63.60;;;;;;5013103;28;20117;-76
2023/04/06 09:57:45;;;;;;;7.55;3.53;;;18.40;63.20;;;;;;5014512;28;20037;-78
2023/04/06 10:00:17;;;;;;;8.07;3.20;;;18.60;62.80;;;;;;5009482;28;20033;-77
2023/04/06 10:03:14;;;;;;;8.63;4.27;;;18.70;62.80;;;;;;5009112;28;20033;-75
2023/04/06 10:05:49;;;;;;;6.97;3.50;;;18.80;62.30;;;;;;5014320;28;20091;-76
2023/04/06 10:08:16;;;;;;;7.45;3.35;;;18.80;62.40;;;;;;5013830;28;20504;-76
2023/04/06 10:10:43;;;;;;;5.57;2.88;;;18.80;62.10;;;;;;4999066;28;20030;-75
2023/04/06 10:13:11;;;;;;;8.32;3.85;;;18.80;62.00;;;;;;5007779;28;20033;-76
2023/04/06 10:15:38;;;;;;;9.82;3.67;;;18.80;61.90;;;;;;5013005;28;20033;-77
2023/04/06 10:18:05;;;;;;;12.55;4.72;;;18.70;61.60;;;;;;5003197;28;20059;-77
2023/04/06 10:20:43;;;;;;;7.75;4.07;;;18.70;61.70;;;;;;5011313;28;20034;-76
2023/04/06 10:23:15;;;;;;;10.52;4.40;;;18.60;61.50;;;;;;5013133;28;20587;-76
2023/04/06 10:25:56;;;;;;;7.50;3.05;;;18.50;61.40;;;;;;5009927;28;20129;-76
2023/04/06 10:28:23;;;;;;;8.88;3.30;;;18.40;61.10;;;;;;5002441;28;20291;-76
2023/04/06 10:30:49;;;;;;;12.43;4.30;;;18.40;61.30;;;;;;5007705;28;20140;-77
2023/04/06 10:33:17;;;;;;;9.30;2.85;;;18.40;61.30;;;;;;5001792;28;20087;-78
2023/04/06 10:35:43;;;;;;;10.48;3.75;;;18.40;61.30;;;;;;5012269;28;20032;-77
2023/04/06 10:38:12;;;;;;;10.48;2.97;;;18.60;61.40;;;;;;5017124;28;20493;-77
2023/04/06 10:40:39;;;;;;;6.72;2.80;;;18.80;61.40;;;;;;5014478;28;20075;-77
2023/04/06 10:43:19;;;;;;;10.80;2.92;;;19.00;61.10;;;;;;5013045;28;20087;-75
2023/04/06 10:45:55;;;;;;;8.20;2.45;;;19.20;60.50;;;;;;5012019;28;20377;-78
2023/04/06 10:48:21;;;;;;;9.00;4.00;;;19.20;60.30;;;;;;5021074;28;20194;-76
2023/04/06 10:50:51;;;;;;;11.13;4.18;;;19.10;60.20;;;;;;5029593;28;20085;-73
2023/04/06 10:53:26;;;;;;;8.35;2.65;;;19.10;60.30;;;;;;5017930;28;20044;-74
2023/04/06 10:55:55;;;;;;;8.52;2.58;;;19.00;60.00;;;;;;5020392;28;20041;-74
2023/04/06 10:58:25;;;;;;;5.60;2.20;;;19.00;60.10;;;;;;5016135;28;20029;-74
2023/04/06 11:00:51;;;;;;;5.57;2.40;;;19.00;60.10;;;;;;5027501;28;20059;-73
2023/04/06 11:03:18;;;;;;;9.77;2.90;;;19.10;60.80;;;;;;5020838;28;20075;-74
2023/04/06 11:05:53;;;;;;;6.57;1.60;;;19.00;60.10;;;;;;4993247;28;20096;-73
2023/04/06 11:08:27;;;;;;;9.75;2.20;;;19.00;60.00;;;;;;5020321;28;20056;-74
2023/04/06 11:11:18;;;;;;;6.35;2.53;;;18.90;60.10;;;;;;5017019;28;20613;-75
2023/04/06 11:13:52;;;;;;;10.30;3.03;;;18.80;60.30;;;;;;5016664;28;20083;-76
2023/04/06 11:16:38;;;;;;;11.82;2.67;;;18.70;60.60;;;;;;5013461;28;20033;-76
2023/04/06 11:19:09;;;;;;;10.82;3.33;;;18.60;60.90;;;;;;5013388;28;20029;-75
2023/04/06 11:21:47;;;;;;;9.90;3.00;;;18.50;61.00;;;;;;5011539;28;20116;-76
2023/04/06 11:24:15;;;;;;;8.27;2.95;;;18.50;61.30;;;;;;5014917;28;20029;-77
2023/04/06 11:26:50;;;;;;;7.40;1.90;;;18.40;61.30;;;;;;5011356;28;20376;-75
2023/04/06 11:29:22;;;;;;;6.95;2.50;;;18.30;61.30;;;;;;5009650;28;20026;-77
2023/04/06 11:31:54;;;;;;;6.85;2.72;;;18.30;61.40;;;;;;5008799;28;20356;-78
2023/04/06 11:34:21;;;;;;;8.30;2.78;;;18.20;61.30;;;;;;4999353;28;20413;-77
2023/04/06 11:36:55;;;;;;;8.32;2.50;;;18.20;61.30;;;;;;5007268;28;20365;-77
2023/04/06 11:39:23;;;;;;;7.07;2.63;;;18.20;61.20;;;;;;5009051;28;20437;-78
2023/04/06 11:42:02;;;;;;;7.00;2.80;;;18.30;61.30;;;;;;5007616;28;20516;-73
2023/04/06 11:44:39;;;;;;;3.38;1.73;;;18.40;61.20;;;;;;4989417;28;20021;-74
2023/04/06 11:47:09;;;;;;;8.40;2.75;;;18.60;61.40;;;;;;5012889;28;20171;-75
2023/04/06 11:49:40;;;;;;;4.93;2.30;;;18.70;61.20;;;;;;5012035;28;20505;-77
2023/04/06 11:52:18;;;;;;;7.40;2.17;;;18.80;61.20;;;;;;5013458;28;20080;-76
2023/04/06 11:54:44;;;;;;;5.57;2.45;;;19.00;61.30;;;;;;4997951;28;20113;-77
2023/04/06 11:57:09;;;;;;;8.02;2.92;;;19.10;61.80;;;;;;4995370;28;20033;-76
2023/04/06 11:59:36;;;;;;;5.97;1.73;;;19.40;61.30;;;;;;5011019;28;20513;-77
2023/04/06 12:02:03;;;;;;;9.32;2.17;;;19.50;61.10;;;;;;5002311;28;20034;-77
2023/04/06 12:04:29;;;;;;;9.25;2.80;;;19.70;60.90;;;;;;5014314;28;20032;-76
2023/04/06 12:06:56;;;;;;;7.85;2.28;;;19.80;60.70;;;;;;4984446;28;20096;-75
2023/04/06 12:09:22;;;;;;;8.85;2.28;;;19.90;60.60;;;;;;5015046;28;20037;-75
2023/04/06 12:11:48;;;;;;;8.18;2.28;;;19.90;60.50;;;;;;5008852;28;20506;-75
2023/04/06 12:14:14;;;;;;;7.95;2.05;;;19.80;60.30;;;;;;5012776;28;20524;-76
2023/04/06 12:16:40;;;;;;;5.97;2.35;;;19.80;60.10;;;;;;4996362;28;20065;-76
2023/04/06 12:19:06;;;;;;;10.00;2.80;;;19.80;60.10;;;;;;5012628;28;20033;-75
2023/04/06 12:21:35;;;;;;;9.27;3.20;;;19.70;60.00;;;;;;5015857;28;20080;-77
2023/04/06 12:24:01;;;;;;;9.68;2.78;;;19.60;59.80;;;;;;5003425;28;20284;-77
2023/04/06 12:26:27;;;;;;;6.22;2.50;;;19.60;60.00;;;;;;5002330;28;20519;-77
2023/04/06 12:28:53;;;;;;;6.13;2.35;;;19.60;60.00;;;;;;5001590;28;20033;-77
2023/04/06 12:31:25;;;;;;;5.55;2.45;;;19.60;60.00;;;;;;5017171;28;20025;-77
2023/04/06 12:33:51;;;;;;;6.78;2.17;;;19.70;59.90;;;;;;5014110;28;20067;-77
2023/04/06 12:36:19;;;;;;;4.80;2.15;;;19.80;59.70;;;;;;5001685;28;20652;-76
2023/04/06 12:38:48;;;;;;;7.03;1.60;;;19.90;59.50;;;;;;5009674;28;20120;-77
2023/04/06 12:41:14;;;;;;;6.30;2.35;;;20.00;59.40;;;;;;5011297;28;20108;-76
2023/04/06 12:43:44;;;;;;;4.40;1.70;;;20.20;59.30;;;;;;5017007;28;20125;-76
2023/04/06 12:46:10;;;;;;;5.07;1.70;;;20.60;59.30;;;;;;4996028;28;20068;-75
2023/04/06 12:48:36;;;;;;;5.47;2.17;;;20.90;59.00;;;;;;5017250;28;20104;-76
2023/04/06 12:51:05;;;;;;;5.25;1.80;;;21.10;58.50;;;;;;5017161;28;20502;-77
2023/04/06 12:53:31;;;;;;;7.05;1.90;;;21.20;58.00;;;;;;4993493;28;20025;-77